Weather observations for the past three days for
Lima, Lima Allen County Airport
Metric (Imperial)
Date Time (edt) Wind (kph) Vis. (km) Weather Sky Cond. Temperature (ºC) Relative Humidity Wind Chill (°C) Heat Index (°C) Pressure Precipitation (cm)
Air Dwpt 6 hour altimeter (cm) sea level (mb) 1 hr 3 hr 6 hr
Max. Min.
04 03:53 Calm 16.09 Fair CLR 21.7 20.6 94% 76.12 1013.8
04 02:53 Calm 14.48 Fair CLR 21.1 20 93% 76.17 1014.7
04 01:53 Calm 16.09 Fair CLR 21.7 20.6 23.9 21.7 94% 76.2 1014.9
04 00:53 Calm 16.09 Fair CLR 23.3 20.6 85% 76.2 1014.7
03 23:53 S 13 16.09 Fair CLR 23.3 21.1 88% 76.15 1014.5
03 22:53 S 9 16.09 Fair CLR 22.8 21.1 90% 76.17 1014.7
03 21:53 S 11 16.09 Fair CLR 22.8 21.1 90% 76.2 1015.0
03 20:53 SE 7 16.09 Fair CLR 22.8 21.1 90% 76.2 1015.2
03 19:53 Calm 16.09 Partly Cloudy FEW075 FEW090 SCT120 23.9 21.1 33.9 23.9 84% 24 76.2 1015.0
03 18:53 N 15 G 41 16.09 Mostly Cloudy FEW047 BKN060 BKN075 25 21.1 79% 26 76.2 1014.9
03 17:53 W 15 16.09 Fair CLR 32.8 22.2 54% 37 76.12 1013.8
03 16:53 SW 24 16.09 Fair CLR 33.3 22.8 54% 38 76.05 1012.9
03 15:53 SW 22 16.09 Fair CLR 33.3 22.2 52% 38 76.07 1013.1
03 14:53 SW 20 16.09 Fair CLR 33.3 22.8 54% 38 76.17 1014.6
03 13:53 SW 22 16.09 Fair CLR 32.8 22.2 32.8 24.4 54% 37 76.2 1014.8
03 12:53 SW 17 16.09 Fair CLR 32.2 23.3 59% 37 76.23 1015.3
03 11:53 SW 19 16.09 Fair CLR 31.1 22.2 59% 35 76.28 1015.8
03 10:53 SW 15 16.09 Fair CLR 29.4 22.8 68% 33 76.25 1015.6
03 09:53 W 13 16.09 Fair CLR 27.8 22.2 72% 30 76.25 1015.7
03 08:53 SW 13 16.09 Fair CLR 26.1 21.7 77% 28 76.28 1016.1
03 07:53 SW 9 16.09 A Few Clouds FEW100 24.4 21.1 25.6 23.9 82% 25 76.28 1016.0
03 06:53 SW 9 16.09 Fair CLR 23.9 21.1 84% 24 76.23 1015.3
03 05:53 SW 7 16.09 Fair CLR 24.4 21.1 82% 25 76.2 1015.0
03 04:53 SW 11 16.09 Partly Cloudy SCT100 25 21.7 82% 26 76.2 1014.8
03 03:53 SW 11 16.09 Fair CLR 25 21.7 82% 26 76.2 1014.9
03 02:53 S 11 16.09 Fair CLR 25 22.2 85% 26 76.2 1014.8
03 01:53 SW 11 16.09 Fair CLR 25.6 22.2 29.4 25.6 82% 27 76.2 1014.9
03 00:53 SW 13 16.09 Fair CLR 26.1 22.8 82% 28 76.17 1014.6
02 23:53 SW 11 16.09 Fair CLR 26.7 22.8 79% 29 76.15 1014.3
02 22:53 SW 13 16.09 Fair CLR 26.7 22.8 79% 29 76.2 1014.7
02 21:53 S 13 16.09 Fair CLR 27.2 22.8 77% 30 76.2 1014.9
02 20:53 S 13 16.09 Fair CLR 28.3 22.8 72% 32 76.15 1014.5
02 19:53 SW 11 16.09 Fair CLR 29.4 23.3 33.9 29.4 70% 34 76.15 1014.3
02 18:53 SW 15 16.09 Fair CLR 31.1 23.3 63% 36 76.15 1014.4
02 17:53 SW 19 16.09 Fair CLR 32.8 22.8 56% 38 76.15 1014.4
02 16:53 SW 13 16.09 Fair CLR 33.3 21.7 51% 37 76.17 1014.6
02 15:53 SW 22 16.09 Fair CLR 33.3 21.1 49% 37 76.23 1015.1
02 14:53 SW 22 16.09 A Few Clouds FEW048 33.3 22.2 52% 38 76.28 1015.8
02 13:53 SW 17 16.09 Fair CLR 32.8 22.8 32.8 23.3 56% 38 76.3 1016.3
02 12:53 SW 19 16.09 Fair CLR 31.7 22.8 59% 36 76.35 1016.9
02 11:53 W 15 16.09 Mostly Cloudy BKN080 30.6 22.2 61% 34 76.35 1017.1
02 10:53 SW 17 16.09 Fair CLR 29.4 22.2 65% 33 76.33 1016.8
02 09:53 SW 15 16.09 A Few Clouds FEW085 27.2 22.2 74% 30 76.35 1017.0
02 08:53 SW 13 14.48 A Few Clouds FEW080 25.6 21.7 79% 27 76.35 1017.0
02 07:53 SW 7 12.87 Fair CLR 23.3 21.1 25 22.8 88% 76.33 1016.8
02 06:53 S 9 14.48 Fair CLR 23.3 21.1 88% 76.3 1016.4
02 05:53 SW 9 16.09 Fair CLR 24.4 21.1 82% 25 76.28 1015.9
02 04:53 SW 11 16.09 Fair CLR 24.4 21.7 85% 25 76.28 1016.0
02 03:53 SW 9 16.09 Fair CLR 24.4 22.2 88% 25 76.28 1015.8
02 02:53 SW 9 16.09 Fair CLR 25 22.2 85% 26 76.25 1015.7
02 01:53 SW 6 16.09 Fair CLR 24.4 22.2 28.3 24.4 88% 25 76.28 1016.0
02 00:53 SW 11 16.09 Fair CLR 25.6 22.8 85% 27 76.25 1015.8
01 23:53 SW 15 16.09 Fair CLR 26.7 22.8 79% 29 76.25 1015.6
01 22:53 SW 15 16.09 Fair CLR 26.7 22.8 79% 29 76.25 1015.6
01 21:53 S 15 16.09 Fair CLR 27.2 23.3 79% 30 76.25 1015.6
01 20:53 S 9 16.09 Partly Cloudy SCT100 27.2 24.4 85% 31 76.23 1015.3
01 19:53 SE 6 16.09 Fair CLR 28.3 26.1 32.8 28.3 88% 34 76.23 1015.5
01 18:53 NE 7 16.09 Fair CLR 30 25 75% 36 76.28 1015.9
01 17:53 Calm 16.09 Fair CLR 31.1 23.9 66% 37 76.25 1015.7
01 15:53 W 17 16.09 Mostly Cloudy BKN110 31.1 22.2 59% 35 76.28 1016.0
01 14:53 SW 19 G 33 16.09 Fair CLR 32.8 22.8 56% 38 76.28 1016.0
01 13:53 SW 13 16.09 Fair CLR 30.6 23.9 30.6 24.4 67% 36 76.28 1016.1 0.03
01 12:53 S 11 16.09 Mostly Cloudy FEW044 BKN110 27.8 22.8 74% 31 76.3 1016.3
01 11:53 SW 9 16.09 Mostly Cloudy BKN110 26.7 22.2 76% 29 76.35 1017.1
01 10:53 SW 15 16.09 Mostly Cloudy FEW040 BKN110 25.6 22.2 82% 27 76.35 1017.0 0.03 0.03
01 09:53 W 9 14.48 Overcast OVC070 25 21.1 79% 26 76.4 1017.8
01 08:53 SW 22 G 37 16.09 Mostly Cloudy BKN110 25.6 21.1 76% 27 76.33 1016.8
01 07:53 SW 13 16.09 Mostly Cloudy BKN100 BKN120 24.4 21.1 25 23.9 82% 25 76.35 1017.0
01 06:53 S 11 16.09 Overcast OVC100 24.4 21.1 82% 25 76.3 1016.4
01 05:53 SW 11 16.09 Overcast OVC100 24.4 21.1 82% 25 76.28 1016.0
01 04:53 SW 11 16.09 Mostly Cloudy BKN100 24.4 21.1 82% 25 76.28 1015.9
Date Time (edt) Wind (kph) Vis. (km) Weather Sky Cond. Air Dwpt Max. Min. Relative Humidity Wind Chill (°C) Heat Index (°C) altimeter (cm) sea level (mb) 1 hr 3 hr 6 hr
6 hour
Temperature (ºC) Pressure Precipitation (cm)